Time;durP1;ratioP1;P1;durP2;ratioP2;P2;SDS_P1;SDS_P2;PMS_P1;PMS_P2;Temp;Humidity;BMP_temperature;BMP_pressure;BME280_temperature;BME280_humidity;BME280_pressure;Samples;Min_cycle;Max_cycle;Signal;HPM_P1;HPM_P2
2022/01/28 00:01:07;;;;;;;6.83;4.60;;;3.80;72.60;;;;;;5159495;27;46939;-63
2022/01/28 00:03:34;;;;;;;8.02;5.18;;;3.80;72.60;;;;;;5157820;27;46220;-64
2022/01/28 00:06:00;;;;;;;9.07;6.00;;;3.80;72.70;;;;;;5163117;27;46277;-62
2022/01/28 00:08:26;;;;;;;8.10;5.17;;;3.80;72.60;;;;;;5154735;27;46361;-63
2022/01/28 00:10:53;;;;;;;9.30;5.43;;;3.70;73.70;;;;;;5149889;27;48199;-62
2022/01/28 00:13:36;;;;;;;6.68;4.65;;;3.70;72.60;;;;;;5151111;27;46467;-64
2022/01/28 00:16:38;;;;;;;8.25;5.22;;;3.70;72.90;;;;;;5155271;27;46310;-64
2022/01/28 00:38:03;;;;;;;5.30;3.22;;;3.30;78.50;;;;;;5155160;27;46362;-62
2022/01/28 00:40:30;;;;;;;6.70;4.28;;;3.30;79.40;;;;;;5152704;27;46257;-63
2022/01/28 00:42:56;;;;;;;6.68;3.80;;;3.30;80.10;;;;;;5154648;27;46498;-61
2022/01/28 00:45:22;;;;;;;6.67;4.10;;;3.20;81.10;;;;;;5153684;27;46501;-62
2022/01/28 00:47:48;;;;;;;8.25;4.35;;;3.10;82.00;;;;;;5149619;27;46452;-63
2022/01/28 00:50:15;;;;;;;7.13;5.10;;;3.10;82.50;;;;;;5157903;27;46425;-63
2022/01/28 00:52:40;;;;;;;7.20;3.90;;;3.10;82.40;;;;;;5155669;27;46314;-63
2022/01/28 00:55:06;;;;;;;7.50;3.90;;;3.10;82.90;;;;;;5157965;27;46446;-62
2022/01/28 00:57:32;;;;;;;7.10;4.57;;;3.10;83.30;;;;;;5160135;27;46354;-63
2022/01/28 00:59:58;;;;;;;6.20;4.50;;;3.00;83.50;;;;;;5156872;27;46578;-63
2022/01/28 01:02:24;;;;;;;7.70;4.57;;;3.00;83.90;;;;;;5152020;27;46361;-63
2022/01/28 01:04:49;;;;;;;7.87;5.03;;;3.00;84.10;;;;;;5152031;27;45866;-62
2022/01/28 01:07:15;;;;;;;11.10;5.63;;;2.90;84.10;;;;;;5155070;27;46401;-62
2022/01/28 01:09:41;;;;;;;9.70;6.23;;;3.00;84.10;;;;;;5154440;27;46400;-61
2022/01/28 01:12:07;;;;;;;8.87;5.50;;;3.00;84.10;;;;;;5158014;27;46393;-63
2022/01/28 01:14:33;;;;;;;7.22;4.32;;;3.10;83.70;;;;;;5158069;27;46382;-62
2022/01/28 01:19:35;;;;;;;8.20;4.60;;;3.20;83.60;;;;;;5149251;27;46381;-63
2022/01/28 01:22:01;;;;;;;7.95;4.30;;;3.10;83.50;;;;;;5150397;27;46456;-61
2022/01/28 01:24:34;;;;;;;9.30;5.20;;;3.10;83.80;;;;;;5157278;27;46394;-63
2022/01/28 01:27:00;;;;;;;7.07;4.88;;;3.20;83.70;;;;;;5151464;27;46485;-62
2022/01/28 01:29:26;;;;;;;10.97;5.77;;;3.20;83.50;;;;;;5151475;27;46303;-62
2022/01/28 01:32:00;;;;;;;12.87;6.03;;;3.10;83.50;;;;;;5153373;27;46118;-63
2022/01/28 01:34:26;;;;;;;10.88;6.43;;;3.20;83.50;;;;;;5155371;27;46423;-62
2022/01/28 01:36:51;;;;;;;7.70;5.10;;;3.10;83.60;;;;;;5158653;27;46441;-63
2022/01/28 01:39:24;;;;;;;12.33;7.07;;;2.90;83.60;;;;;;5159093;27;46446;-63
2022/01/28 01:52:49;;;;;;;14.10;7.95;;;2.50;83.60;;;;;;5153865;27;46522;-63
2022/01/28 01:55:15;;;;;;;12.50;7.20;;;2.50;83.30;;;;;;5161830;27;46278;-63
2022/01/28 01:57:40;;;;;;;13.83;6.70;;;2.40;83.00;;;;;;5153326;27;46383;-63
2022/01/28 02:00:07;;;;;;;13.27;7.87;;;2.50;82.90;;;;;;5156248;27;46377;-62
2022/01/28 02:02:33;;;;;;;14.20;7.10;;;2.60;82.30;;;;;;5158453;27;46415;-61
2022/01/28 02:04:58;;;;;;;15.07;7.67;;;2.70;81.70;;;;;;5156712;27;46259;-63
2022/01/28 02:07:26;;;;;;;9.80;6.80;;;2.90;81.10;;;;;;5154750;27;46445;-63
2022/01/28 02:09:51;;;;;;;13.40;7.85;;;2.90;80.70;;;;;;5160184;27;46326;-63
2022/01/28 02:12:17;;;;;;;13.87;7.50;;;3.00;80.30;;;;;;5155879;27;47332;-63
2022/01/28 02:14:43;;;;;;;12.07;7.50;;;3.10;80.10;;;;;;5147620;27;46293;-63
2022/01/28 02:17:09;;;;;;;12.83;7.53;;;3.10;79.90;;;;;;5148336;27;46368;-63
2022/01/28 02:19:35;;;;;;;14.87;7.90;;;3.10;79.70;;;;;;5151790;27;46369;-63
2022/01/28 02:22:01;;;;;;;13.85;7.60;;;3.10;79.60;;;;;;5153685;27;46385;-63
2022/01/28 02:24:33;;;;;;;14.27;7.67;;;3.20;79.50;;;;;;5155163;27;46244;-62
2022/01/28 02:26:58;;;;;;;14.52;8.15;;;3.20;79.30;;;;;;5158431;27;46520;-63
2022/01/28 02:29:30;;;;;;;12.37;7.50;;;3.30;79.20;;;;;;5158256;27;46235;-63
2022/01/28 02:31:57;;;;;;;13.75;7.05;;;3.20;79.20;;;;;;5151417;27;47360;-64
2022/01/28 02:34:23;;;;;;;13.70;7.05;;;3.20;79.20;;;;;;5149136;27;46526;-63
2022/01/28 02:36:48;;;;;;;12.63;7.50;;;3.20;79.40;;;;;;5149428;27;46347;-62
2022/01/28 02:39:14;;;;;;;12.97;6.77;;;3.10;79.50;;;;;;5155369;27;45889;-62
2022/01/28 02:41:44;;;;;;;11.70;7.30;;;3.10;79.80;;;;;;5154698;27;46317;-62
2022/01/28 02:46:55;;;;;;;14.77;8.23;;;3.00;79.80;;;;;;5157401;27;46581;-63
2022/01/28 02:49:20;;;;;;;12.60;6.47;;;3.00;79.70;;;;;;5153408;27;46342;-64
2022/01/28 02:51:46;;;;;;;12.30;6.80;;;3.00;79.70;;;;;;5152357;27;46503;-64
2022/01/28 02:54:14;;;;;;;12.97;7.27;;;3.10;79.60;;;;;;5156853;27;46368;-63
2022/01/28 02:56:48;;;;;;;13.73;6.80;;;3.20;79.70;;;;;;5156260;27;46311;-63
2022/01/28 02:59:14;;;;;;;10.23;6.30;;;3.20;79.40;;;;;;5157707;27;46366;-63
2022/01/28 03:01:40;;;;;;;14.50;6.53;;;3.20;79.30;;;;;;5159201;27;47179;-63
2022/01/28 03:04:07;;;;;;;12.90;7.63;;;3.20;79.20;;;;;;5155975;27;46306;-63
2022/01/28 03:06:33;;;;;;;12.13;6.75;;;3.20;79.30;;;;;;5155148;27;46266;-62
2022/01/28 03:09:03;;;;;;;10.17;5.83;;;3.20;79.10;;;;;;5158822;27;46413;-63
2022/01/28 03:14:36;;;;;;;11.07;6.25;;;3.30;79.10;;;;;;5153823;27;46398;-63
2022/01/28 03:17:10;;;;;;;10.68;6.15;;;3.30;78.90;;;;;;5162022;27;46403;-63
2022/01/28 03:19:49;;;;;;;8.88;5.53;;;3.40;78.80;;;;;;5157740;27;46105;-63
2022/01/28 03:22:15;;;;;;;9.10;5.70;;;3.40;78.70;;;;;;5151962;27;46372;-63
2022/01/28 03:24:41;;;;;;;8.83;5.00;;;3.50;78.70;;;;;;5160990;27;46265;-64
2022/01/28 03:27:14;;;;;;;8.20;5.10;;;3.40;78.60;;;;;;5160803;27;46323;-63
2022/01/28 03:29:39;;;;;;;10.07;5.38;;;3.40;78.40;;;;;;5153015;27;46442;-63
2022/01/28 03:32:05;;;;;;;11.40;5.23;;;3.50;78.50;;;;;;5155336;27;46417;-63
2022/01/28 03:34:31;;;;;;;9.13;5.30;;;3.50;78.40;;;;;;5155460;27;46640;-63
2022/01/28 03:36:57;;;;;;;7.40;4.97;;;3.50;78.40;;;;;;5156661;27;46336;-64
2022/01/28 03:39:22;;;;;;;9.70;5.93;;;3.50;78.40;;;;;;5159794;27;46265;-63
2022/01/28 03:41:48;;;;;;;8.73;4.80;;;3.60;78.40;;;;;;5166704;27;47088;-63
2022/01/28 03:44:13;;;;;;;8.03;5.17;;;3.60;78.40;;;;;;5158171;27;46294;-62
2022/01/28 03:46:39;;;;;;;8.63;5.10;;;3.60;78.30;;;;;;5152966;27;46479;-63
2022/01/28 03:49:05;;;;;;;9.57;5.60;;;3.60;78.20;;;;;;5152225;27;46490;-63
2022/01/28 03:51:30;;;;;;;8.90;5.50;;;3.60;78.20;;;;;;5154255;27;47071;-63
2022/01/28 03:53:57;;;;;;;8.87;5.10;;;3.60;78.00;;;;;;5155369;27;46207;-62
2022/01/28 03:56:23;;;;;;;7.55;5.03;;;3.70;77.80;;;;;;5160474;27;46516;-63
2022/01/28 03:58:48;;;;;;;8.85;4.95;;;3.70;79.00;;;;;;5162538;27;46485;-62
2022/01/28 04:01:18;;;;;;;9.50;5.03;;;3.60;77.90;;;;;;5156289;27;46444;-62
2022/01/28 04:04:01;;;;;;;8.40;5.25;;;3.60;77.90;;;;;;5160154;27;46321;-62
2022/01/28 04:11:57;;;;;;;7.68;5.28;;;3.60;77.70;;;;;;5157619;27;46819;-63
2022/01/28 04:19:33;;;;;;;7.67;4.80;;;3.60;77.60;;;;;;5148124;27;46499;-63
2022/01/28 04:21:59;;;;;;;9.82;5.20;;;3.60;77.50;;;;;;5148116;27;46393;-63
2022/01/28 04:24:24;;;;;;;6.43;4.78;;;3.60;77.50;;;;;;5156107;27;45902;-63
2022/01/28 04:26:51;;;;;;;9.13;5.43;;;3.50;77.70;;;;;;5155478;27;46311;-63
2022/01/28 04:29:17;;;;;;;6.60;5.00;;;3.40;77.90;;;;;;5156881;27;46364;-62
2022/01/28 04:31:46;;;;;;;8.07;5.15;;;3.40;77.80;;;;;;5160922;27;46426;-62
2022/01/28 04:34:13;;;;;;;9.25;5.50;;;3.40;77.80;;;;;;5162667;27;46411;-63
2022/01/28 04:36:51;;;;;;;10.13;5.07;;;3.50;77.60;;;;;;5161264;27;46392;-63
2022/01/28 04:39:25;;;;;;;6.85;4.35;;;3.50;77.80;;;;;;5146420;27;46565;-62
2022/01/28 04:44:36;;;;;;;8.32;4.65;;;3.60;77.40;;;;;;5151975;27;46246;-63
2022/01/28 04:47:09;;;;;;;7.63;4.47;;;3.60;77.30;;;;;;5155305;27;46433;-64
2022/01/28 04:49:58;;;;;;;7.93;4.30;;;3.50;77.20;;;;;;5155938;27;46438;-63
2022/01/28 04:57:58;;;;;;;9.85;5.07;;;3.40;77.40;;;;;;5155900;27;46401;-63
2022/01/28 05:00:37;;;;;;;7.82;5.20;;;3.40;77.40;;;;;;5152743;27;46357;-63
2022/01/28 05:14:01;;;;;;;7.05;4.68;;;3.40;77.10;;;;;;5154604;27;46292;-62
2022/01/28 05:27:00;;;;;;;7.68;4.95;;;3.30;77.60;;;;;;5160280;27;46007;-63
2022/01/28 05:29:26;;;;;;;10.27;5.43;;;3.40;77.60;;;;;;5159331;27;46277;-63
2022/01/28 05:31:52;;;;;;;7.97;4.77;;;3.30;77.50;;;;;;5154071;27;46345;-63
2022/01/28 05:34:17;;;;;;;7.27;4.50;;;3.40;77.50;;;;;;5152511;27;48060;-62
2022/01/28 05:36:44;;;;;;;9.43;4.90;;;3.40;77.30;;;;;;5154049;27;46302;-62
2022/01/28 05:39:10;;;;;;;8.23;5.35;;;3.30;77.20;;;;;;5160865;27;46274;-64
2022/01/28 05:41:35;;;;;;;7.07;4.37;;;3.20;77.40;;;;;;5158206;27;46360;-63
2022/01/28 05:44:02;;;;;;;5.03;4.03;;;3.20;77.60;;;;;;5156862;27;48040;-63
2022/01/28 05:46:29;;;;;;;7.75;4.18;;;3.10;77.70;;;;;;5158821;27;46435;-63
2022/01/28 05:48:57;;;;;;;7.72;4.57;;;2.90;78.20;;;;;;5152919;27;45901;-63
2022/01/28 05:51:23;;;;;;;6.95;4.45;;;2.80;78.60;;;;;;5147893;27;46266;-63
2022/01/28 05:53:49;;;;;;;10.33;4.80;;;2.80;78.70;;;;;;5155784;27;45993;-62
2022/01/28 05:56:15;;;;;;;6.83;4.30;;;2.90;78.40;;;;;;5153956;27;46319;-63
2022/01/28 05:58:40;;;;;;;8.37;4.67;;;3.00;78.30;;;;;;5154865;27;46406;-63
2022/01/28 06:01:06;;;;;;;5.10;4.13;;;3.00;78.10;;;;;;5156512;27;46526;-63
2022/01/28 06:03:31;;;;;;;7.27;4.40;;;3.20;78.00;;;;;;5156035;27;46379;-64
2022/01/28 06:05:57;;;;;;;6.17;4.20;;;3.20;77.80;;;;;;5155928;27;46403;-62
2022/01/28 06:08:23;;;;;;;6.80;4.50;;;3.30;77.40;;;;;;5159811;27;46402;-62
2022/01/28 06:10:48;;;;;;;6.90;4.23;;;3.30;77.00;;;;;;5157032;27;46659;-62
2022/01/28 06:13:14;;;;;;;7.17;4.50;;;3.30;76.70;;;;;;5150386;27;46409;-64
2022/01/28 06:15:43;;;;;;;6.30;4.60;;;3.40;76.50;;;;;;5155833;27;46406;-62
2022/01/28 06:18:10;;;;;;;8.10;5.00;;;3.50;76.40;;;;;;5155137;27;46270;-62
2022/01/28 06:20:36;;;;;;;9.07;5.50;;;3.70;76.50;;;;;;5155235;27;46353;-63
2022/01/28 06:23:02;;;;;;;8.00;4.93;;;3.60;76.10;;;;;;5148681;27;46365;-62
2022/01/28 06:25:27;;;;;;;8.67;4.63;;;3.60;76.00;;;;;;5158674;27;46519;-63
2022/01/28 06:27:53;;;;;;;10.40;4.77;;;3.60;75.60;;;;;;5156947;27;46353;-64
2022/01/28 06:30:20;;;;;;;7.90;5.37;;;3.70;75.50;;;;;;5155289;27;46414;-62
2022/01/28 06:32:47;;;;;;;6.80;5.15;;;3.60;75.60;;;;;;5156610;27;48880;-64
2022/01/28 06:35:13;;;;;;;10.55;5.50;;;3.60;75.60;;;;;;5155509;27;46387;-62
2022/01/28 06:37:41;;;;;;;7.90;4.37;;;3.50;76.90;;;;;;5151951;27;46289;-63
2022/01/28 06:40:17;;;;;;;6.85;4.47;;;3.50;75.80;;;;;;5151240;27;45971;-63
2022/01/28 06:42:43;;;;;;;7.90;4.75;;;3.40;76.20;;;;;;5150305;27;46484;-63
2022/01/28 06:45:09;;;;;;;8.70;5.13;;;3.40;76.40;;;;;;5151757;27;46467;-63
2022/01/28 06:47:35;;;;;;;6.93;3.88;;;3.40;76.40;;;;;;5148918;27;46575;-63
2022/01/28 06:50:05;;;;;;;6.20;3.78;;;3.30;76.60;;;;;;5147891;27;46522;-64
2022/01/28 06:52:32;;;;;;;7.82;4.50;;;3.10;77.50;;;;;;5154917;27;46416;-63
2022/01/28 06:55:01;;;;;;;9.55;4.65;;;3.00;78.00;;;;;;5154911;27;46503;-62
2022/01/28 06:57:30;;;;;;;5.30;3.40;;;2.90;78.10;;;;;;5161443;27;46443;-63
2022/01/28 06:59:56;;;;;;;7.47;4.35;;;2.80;78.70;;;;;;5161400;27;46508;-64
2022/01/28 07:02:22;;;;;;;5.05;3.75;;;2.60;79.40;;;;;;5150233;27;46388;-61
2022/01/28 07:04:47;;;;;;;4.27;3.50;;;2.50;79.70;;;;;;5152338;27;46498;-64
2022/01/28 07:07:14;;;;;;;6.60;3.67;;;2.50;80.40;;;;;;5152067;27;46337;-63
2022/01/28 07:09:40;;;;;;;7.20;4.50;;;2.40;81.20;;;;;;5153661;27;46526;-63
2022/01/28 07:12:06;;;;;;;6.93;4.03;;;2.40;81.10;;;;;;5148372;27;47258;-62
2022/01/28 07:14:31;;;;;;;7.47;3.47;;;2.60;80.50;;;;;;5153546;27;46447;-62
2022/01/28 07:16:57;;;;;;;6.67;4.00;;;2.70;80.00;;;;;;5152837;27;46619;-63
2022/01/28 07:19:23;;;;;;;7.87;4.07;;;2.80;79.80;;;;;;5154050;27;46380;-63
2022/01/28 07:21:49;;;;;;;5.00;3.70;;;2.80;79.40;;;;;;5152466;27;46307;-62
2022/01/28 07:24:14;;;;;;;5.53;3.57;;;2.90;79.00;;;;;;5165000;27;46389;-62
2022/01/28 07:26:40;;;;;;;8.63;4.07;;;2.90;78.70;;;;;;5156886;27;46492;-61
2022/01/28 07:29:07;;;;;;;6.63;3.97;;;3.00;78.80;;;;;;5158197;27;46389;-63
2022/01/28 07:31:33;;;;;;;6.13;3.30;;;3.00;78.50;;;;;;5153651;27;46389;-63
2022/01/28 07:33:59;;;;;;;7.30;3.65;;;3.00;78.20;;;;;;5157171;27;46466;-62
2022/01/28 07:36:25;;;;;;;6.13;3.80;;;3.00;78.20;;;;;;5153392;27;46627;-63
2022/01/28 07:38:50;;;;;;;5.00;3.37;;;3.10;78.20;;;;;;5155714;27;46602;-64
2022/01/28 07:41:16;;;;;;;9.57;3.50;;;3.00;77.50;;;;;;5157314;27;46885;-63
2022/01/28 07:43:42;;;;;;;5.53;3.72;;;3.00;77.50;;;;;;5156395;27;46388;-64
2022/01/28 07:46:08;;;;;;;5.27;3.13;;;2.90;77.50;;;;;;5162257;27;46376;-64
2022/01/28 07:48:34;;;;;;;5.97;3.37;;;2.90;77.60;;;;;;5160687;27;46432;-64
2022/01/28 07:50:59;;;;;;;8.43;3.77;;;3.00;77.40;;;;;;5154698;27;46172;-63
2022/01/28 07:53:25;;;;;;;4.90;2.70;;;3.00;77.00;;;;;;5150091;27;46438;-64
2022/01/28 07:55:51;;;;;;;6.50;2.80;;;3.00;77.00;;;;;;5152349;27;46265;-63
2022/01/28 07:58:17;;;;;;;5.40;3.00;;;3.00;77.00;;;;;;5154951;27;46372;-62
2022/01/28 08:00:42;;;;;;;5.77;3.43;;;3.00;76.70;;;;;;5151177;27;48574;-64
2022/01/28 08:03:08;;;;;;;5.93;3.67;;;3.00;76.60;;;;;;5150276;27;45874;-64
2022/01/28 08:05:34;;;;;;;6.43;3.43;;;3.10;77.80;;;;;;5158173;27;46393;-64
2022/01/28 08:08:04;;;;;;;4.85;3.35;;;3.10;76.30;;;;;;5155604;27;46524;-64
2022/01/28 08:10:32;;;;;;;4.32;2.85;;;3.10;76.10;;;;;;5160594;27;46367;-63
2022/01/28 08:13:00;;;;;;;5.05;3.20;;;3.20;76.00;;;;;;5160215;27;46427;-63
2022/01/28 08:15:26;;;;;;;5.03;3.47;;;3.20;75.90;;;;;;5156169;27;46375;-63
2022/01/28 08:17:52;;;;;;;5.60;3.50;;;3.20;76.00;;;;;;5152289;27;46391;-63
2022/01/28 08:20:18;;;;;;;8.87;3.47;;;3.10;76.00;;;;;;5155036;27;46348;-63
2022/01/28 08:22:49;;;;;;;6.60;3.13;;;3.10;76.20;;;;;;5156770;27;46412;-61
2022/01/28 08:25:16;;;;;;;6.05;3.80;;;3.20;76.40;;;;;;5154799;27;46388;-63
2022/01/28 08:27:43;;;;;;;4.40;3.00;;;3.10;76.30;;;;;;5161022;27;46367;-63
2022/01/28 08:30:10;;;;;;;9.20;3.35;;;3.30;76.10;;;;;;5159363;27;47080;-61
2022/01/28 08:32:36;;;;;;;6.60;3.95;;;3.40;75.70;;;;;;5154704;27;46571;-64
2022/01/28 08:35:01;;;;;;;6.07;3.40;;;3.50;75.20;;;;;;5157499;27;46654;-64
2022/01/28 08:37:27;;;;;;;5.00;3.33;;;3.60;74.90;;;;;;5161249;27;46326;-63
2022/01/28 08:39:53;;;;;;;6.13;3.03;;;3.50;74.70;;;;;;5156795;27;46416;-61
2022/01/28 08:42:19;;;;;;;6.13;4.10;;;3.50;74.70;;;;;;5157710;27;45816;-64
2022/01/28 08:44:44;;;;;;;6.90;2.80;;;3.60;74.80;;;;;;5153515;27;46553;-65
2022/01/28 08:47:10;;;;;;;10.60;3.90;;;3.60;74.50;;;;;;5149508;27;46341;-64
2022/01/28 08:49:36;;;;;;;4.13;3.10;;;3.60;74.10;;;;;;5148636;27;48309;-64
2022/01/28 08:52:02;;;;;;;7.40;3.17;;;3.60;74.30;;;;;;5148441;27;45811;-62
2022/01/28 08:54:28;;;;;;;6.63;3.20;;;3.50;74.20;;;;;;5153758;27;46488;-63
2022/01/28 08:56:54;;;;;;;4.43;2.90;;;3.50;74.30;;;;;;5153414;27;46364;-63
2022/01/28 08:59:19;;;;;;;6.03;3.03;;;3.60;74.20;;;;;;5158225;27;47218;-62
2022/01/28 09:01:45;;;;;;;12.03;3.50;;;3.50;74.20;;;;;;5161429;27;46311;-63
2022/01/28 09:04:10;;;;;;;5.90;2.60;;;3.60;74.30;;;;;;5159495;27;46384;-63
2022/01/28 09:06:36;;;;;;;3.27;2.37;;;3.60;73.90;;;;;;5159818;27;46310;-64
2022/01/28 09:09:03;;;;;;;4.63;2.60;;;3.60;73.00;;;;;;5149628;27;46560;-63
2022/01/28 09:11:33;;;;;;;6.43;2.80;;;3.60;72.50;;;;;;5152930;27;46553;-63
2022/01/28 09:13:59;;;;;;;6.72;3.03;;;3.60;72.40;;;;;;5151263;27;46394;-62
2022/01/28 09:16:25;;;;;;;8.60;3.10;;;3.60;72.50;;;;;;5153296;27;46399;-63
2022/01/28 09:18:51;;;;;;;7.60;2.87;;;3.60;72.50;;;;;;5153541;27;48113;-63
2022/01/28 09:21:18;;;;;;;8.10;3.80;;;3.70;72.50;;;;;;5156005;27;45878;-64
2022/01/28 09:23:46;;;;;;;6.90;2.47;;;3.70;72.50;;;;;;5148658;27;46337;-62
2022/01/28 09:26:12;;;;;;;9.00;3.40;;;3.70;72.50;;;;;;5148676;27;46599;-63
2022/01/28 09:28:38;;;;;;;6.50;3.10;;;3.60;72.40;;;;;;5151279;27;46301;-63
2022/01/28 09:31:04;;;;;;;5.37;3.30;;;3.60;72.40;;;;;;5153376;27;46290;-64
2022/01/28 09:33:29;;;;;;;4.73;3.07;;;3.70;72.50;;;;;;5156771;27;46417;-64
2022/01/28 09:35:56;;;;;;;5.57;2.77;;;3.70;72.50;;;;;;5157126;27;46414;-63
2022/01/28 09:38:22;;;;;;;7.27;3.80;;;3.80;72.60;;;;;;5149755;27;47193;-63
2022/01/28 09:40:48;;;;;;;7.33;3.30;;;3.90;73.90;;;;;;5149035;27;46304;-64
2022/01/28 09:43:14;;;;;;;5.82;3.58;;;4.10;72.20;;;;;;5149188;27;46504;-61
2022/01/28 09:45:40;;;;;;;5.30;2.80;;;4.10;71.80;;;;;;5155266;27;46582;-62
2022/01/28 09:48:05;;;;;;;7.87;3.33;;;4.10;71.90;;;;;;5152368;27;46506;-64
2022/01/28 09:50:33;;;;;;;9.73;3.20;;;4.30;71.50;;;;;;5152036;27;46451;-64
2022/01/28 09:52:59;;;;;;;5.93;2.58;;;4.30;71.10;;;;;;5152720;27;46461;-63
2022/01/28 09:55:26;;;;;;;6.33;2.90;;;4.30;70.70;;;;;;5147327;27;46645;-64
2022/01/28 09:57:55;;;;;;;7.87;2.60;;;4.20;70.80;;;;;;5146822;27;47132;-62
2022/01/28 10:00:24;;;;;;;6.72;3.40;;;4.20;70.90;;;;;;5147613;27;45854;-62
2022/01/28 10:02:55;;;;;;;4.10;2.63;;;4.20;70.80;;;;;;5147796;27;46470;-64
2022/01/28 10:05:22;;;;;;;8.50;3.50;;;4.30;70.70;;;;;;5151257;27;46655;-62
2022/01/28 10:08:10;;;;;;;6.07;2.53;;;4.40;70.40;;;;;;5150430;27;46431;-62
2022/01/28 10:11:06;;;;;;;5.05;2.20;;;4.50;69.70;;;;;;5149977;27;46307;-62
2022/01/28 10:16:18;;;;;;;6.53;2.40;;;4.60;68.20;;;;;;5149588;27;46372;-63
2022/01/28 10:18:51;;;;;;;5.80;2.53;;;4.90;68.30;;;;;;5152014;27;47360;-64
2022/01/28 10:21:39;;;;;;;3.10;2.05;;;4.90;67.70;;;;;;5151630;27;46332;-63
2022/01/28 10:24:16;;;;;;;5.10;3.00;;;4.90;66.50;;;;;;5147895;27;46419;-62
2022/01/28 10:26:49;;;;;;;8.20;2.63;;;4.70;66.60;;;;;;5152631;27;46472;-64
2022/01/28 10:29:31;;;;;;;6.60;2.67;;;4.80;66.70;;;;;;5151553;27;46383;-64
2022/01/28 10:32:05;;;;;;;5.45;2.72;;;5.00;65.90;;;;;;5148408;27;45704;-61
2022/01/28 10:34:44;;;;;;;5.27;2.17;;;5.00;65.60;;;;;;5149425;27;46378;-61
2022/01/28 10:37:12;;;;;;;5.20;1.87;;;5.10;65.30;;;;;;5152904;27;45826;-63
2022/01/28 10:40:00;;;;;;;3.03;1.80;;;5.10;65.20;;;;;;5158947;27;46059;-61
2022/01/28 10:42:47;;;;;;;4.20;2.20;;;4.90;65.30;;;;;;5150797;27;46535;-63
2022/01/28 10:45:16;;;;;;;3.10;1.97;;;4.90;65.30;;;;;;5154617;27;45965;-61
2022/01/28 10:47:50;;;;;;;8.53;2.20;;;4.90;65.30;;;;;;5155317;27;46434;-62
2022/01/28 10:50:37;;;;;;;10.93;2.73;;;5.00;65.30;;;;;;5148855;27;46402;-63
2022/01/28 10:53:21;;;;;;;4.83;2.40;;;5.10;65.60;;;;;;5150576;27;46412;-63
2022/01/28 10:55:53;;;;;;;6.13;2.73;;;5.20;65.40;;;;;;5148441;27;45913;-64
2022/01/28 10:58:21;;;;;;;4.83;2.07;;;5.30;64.80;;;;;;5154726;27;46405;-64
2022/01/28 11:00:57;;;;;;;5.60;2.30;;;5.40;64.70;;;;;;5155523;27;47069;-63
2022/01/28 11:03:26;;;;;;;3.53;2.40;;;5.50;64.50;;;;;;5158550;27;46524;-63
2022/01/28 11:05:58;;;;;;;5.27;2.70;;;5.70;64.10;;;;;;5162950;27;46391;-63
2022/01/28 11:08:26;;;;;;;4.70;2.43;;;5.90;64.20;;;;;;5158745;27;46426;-63
2022/01/28 11:10:52;;;;;;;4.30;1.97;;;5.60;62.50;;;;;;5150054;27;46507;-64
2022/01/28 11:13:18;;;;;;;10.17;2.43;;;5.40;63.20;;;;;;5151624;27;46656;-64
2022/01/28 11:15:44;;;;;;;4.57;2.27;;;5.30;65.10;;;;;;5150937;27;46396;-64
2022/01/28 11:18:11;;;;;;;4.67;1.60;;;5.30;63.80;;;;;;5156067;27;46312;-64
2022/01/28 11:20:59;;;;;;;7.43;2.20;;;5.30;63.10;;;;;;5155307;27;47126;-63
2022/01/28 11:23:43;;;;;;;4.80;1.70;;;5.20;63.40;;;;;;5158519;27;46506;-63
2022/01/28 11:26:17;;;;;;;4.00;1.70;;;5.10;62.90;;;;;;5153142;27;46407;-64
2022/01/28 11:28:44;;;;;;;4.87;1.50;;;4.90;62.60;;;;;;5158073;27;46290;-62
2022/01/28 11:31:12;;;;;;;8.10;1.47;;;4.70;62.20;;;;;;5151628;27;46560;-62
2022/01/28 11:33:49;;;;;;;6.13;2.20;;;4.60;62.50;;;;;;5154133;27;47788;-63
2022/01/28 11:36:33;;;;;;;3.20;1.90;;;4.60;62.90;;;;;;5153382;27;46479;-63
2022/01/28 11:39:20;;;;;;;5.50;3.00;;;4.80;63.50;;;;;;5157047;27;46292;-64
2022/01/28 11:42:02;;;;;;;8.90;2.70;;;5.10;63.30;;;;;;5154978;27;46427;-65
2022/01/28 11:44:50;;;;;;;6.73;3.03;;;5.00;65.60;;;;;;5157739;27;46421;-63
2022/01/28 11:47:33;;;;;;;6.17;3.47;;;4.90;65.10;;;;;;5155803;27;46555;-63
2022/01/28 11:50:17;;;;;;;6.53;3.10;;;5.00;65.20;;;;;;5152772;27;46760;-64
2022/01/28 11:52:44;;;;;;;6.30;3.03;;;4.90;64.90;;;;;;5158855;27;46453;-64
2022/01/28 11:55:23;;;;;;;7.23;3.50;;;5.00;66.30;;;;;;5160442;27;45787;-62
2022/01/28 11:57:58;;;;;;;7.70;3.70;;;5.30;64.60;;;;;;5155796;27;46497;-63
2022/01/28 12:00:25;;;;;;;10.43;3.83;;;5.60;63.90;;;;;;5161393;27;46177;-64
2022/01/28 12:02:52;;;;;;;5.20;2.60;;;5.50;63.70;;;;;;5157060;27;46274;-63
2022/01/28 12:05:44;;;;;;;5.10;3.17;;;5.50;63.20;;;;;;5151727;27;46440;-65
2022/01/28 12:08:11;;;;;;;9.67;3.43;;;5.30;64.00;;;;;;5120049;27;46485;-63
2022/01/28 12:10:50;;;;;;;5.00;3.20;;;5.60;64.00;;;;;;5155021;27;46655;-63
2022/01/28 12:13:18;;;;;;;7.80;3.93;;;5.70;64.70;;;;;;5155595;27;46452;-63
2022/01/28 12:16:04;;;;;;;6.90;3.57;;;5.90;63.10;;;;;;5159537;27;45809;-63
2022/01/28 12:18:45;;;;;;;10.50;3.17;;;5.80;62.20;;;;;;5160584;27;46424;-62
2022/01/28 12:21:16;;;;;;;7.93;3.07;;;5.70;63.20;;;;;;5154000;27;46351;-62
2022/01/28 12:23:44;;;;;;;6.80;3.30;;;5.70;64.20;;;;;;5153071;27;47204;-62
2022/01/28 12:26:13;;;;;;;6.50;3.40;;;5.60;63.70;;;;;;5150305;27;46329;-61
2022/01/28 12:28:54;;;;;;;8.23;3.10;;;5.50;63.80;;;;;;5153154;27;46448;-62
2022/01/28 12:31:22;;;;;;;5.67;3.33;;;5.50;63.80;;;;;;5150848;27;46360;-62
2022/01/28 12:33:53;;;;;;;6.23;3.40;;;5.50;63.60;;;;;;5151192;27;47186;-64
2022/01/28 12:36:31;;;;;;;7.33;3.20;;;5.30;63.90;;;;;;5153265;27;46417;-62
2022/01/28 12:41:34;;;;;;;3.93;2.60;;;5.40;64.60;;;;;;5153419;27;46564;-62
2022/01/28 12:44:04;;;;;;;3.97;3.00;;;5.40;64.60;;;;;;5152466;27;46712;-63
2022/01/28 12:46:30;;;;;;;3.17;2.00;;;5.30;64.50;;;;;;5150886;27;46552;-63
2022/01/28 12:48:58;;;;;;;5.83;2.90;;;5.20;64.80;;;;;;5149113;27;46419;-62
2022/01/28 12:51:24;;;;;;;5.60;2.70;;;5.00;64.60;;;;;;5152778;27;46690;-62
2022/01/28 12:53:55;;;;;;;6.13;1.93;;;4.90;64.00;;;;;;5151226;27;46518;-62
2022/01/28 12:56:40;;;;;;;6.03;2.30;;;4.80;63.60;;;;;;5148934;27;46424;-62
2022/01/28 12:59:06;;;;;;;3.40;2.33;;;4.80;63.20;;;;;;5157402;27;46441;-62
2022/01/28 13:01:33;;;;;;;3.63;2.20;;;5.00;62.90;;;;;;5155837;27;46662;-62
2022/01/28 13:04:11;;;;;;;11.60;1.80;;;5.10;63.00;;;;;;5151572;27;47899;-62
2022/01/28 13:06:43;;;;;;;7.80;1.90;;;5.00;62.30;;;;;;5161993;27;46375;-64
2022/01/28 13:09:20;;;;;;;4.10;1.83;;;5.10;62.10;;;;;;5159721;27;46353;-64
2022/01/28 13:11:54;;;;;;;5.47;2.20;;;5.30;61.60;;;;;;5157377;27;46455;-64
2022/01/28 13:14:29;;;;;;;6.93;1.70;;;5.30;61.30;;;;;;5154695;27;46688;-64
2022/01/28 13:16:56;;;;;;;4.00;1.47;;;5.30;61.30;;;;;;5151268;27;46388;-64
2022/01/28 13:19:22;;;;;;;3.97;2.10;;;5.30;61.10;;;;;;5151948;27;45713;-64
2022/01/28 13:21:49;;;;;;;6.60;1.57;;;5.20;60.60;;;;;;5147366;27;46200;-65
2022/01/28 13:24:20;;;;;;;2.83;1.43;;;5.20;60.80;;;;;;5153302;27;46417;-63
2022/01/28 13:27:02;;;;;;;6.33;1.50;;;5.30;60.50;;;;;;5157481;27;46292;-64
2022/01/28 13:29:49;;;;;;;4.70;1.57;;;5.40;60.30;;;;;;5149983;27;46448;-62
2022/01/28 13:32:20;;;;;;;8.40;1.67;;;5.30;59.50;;;;;;5155831;27;46309;-64
2022/01/28 13:34:55;;;;;;;10.00;2.23;;;5.30;59.70;;;;;;5157596;27;47202;-65
2022/01/28 13:37:45;;;;;;;3.90;1.47;;;5.20;59.30;;;;;;5151562;27;46305;-64
2022/01/28 13:40:32;;;;;;;4.13;1.30;;;5.20;59.00;;;;;;5153348;27;46388;-63
2022/01/28 13:43:18;;;;;;;3.87;1.33;;;5.20;58.70;;;;;;5152905;27;46362;-64
2022/01/28 13:45:56;;;;;;;7.50;1.70;;;5.20;58.90;;;;;;5153760;27;46337;-63
2022/01/28 13:48:34;;;;;;;12.82;1.60;;;5.20;58.70;;;;;;5154548;27;46370;-64
2022/01/28 13:51:15;;;;;;;3.77;1.40;;;5.20;58.70;;;;;;5156750;27;46285;-63
2022/01/28 13:56:28;;;;;;;3.17;1.20;;;5.20;57.80;;;;;;5156094;27;46074;-64
2022/01/28 13:58:54;;;;;;;3.23;1.20;;;5.30;57.40;;;;;;5157798;27;46426;-62
2022/01/28 14:01:26;;;;;;;2.80;1.10;;;5.30;56.90;;;;;;5155342;27;46396;-63
2022/01/28 14:03:55;;;;;;;3.80;1.10;;;5.20;56.50;;;;;;5157599;27;46472;-65
2022/01/28 14:06:29;;;;;;;3.40;1.33;;;5.20;56.10;;;;;;5156764;27;46035;-62
2022/01/28 14:09:11;;;;;;;1.63;1.07;;;5.20;56.00;;;;;;5152155;27;46381;-62
2022/01/28 14:11:42;;;;;;;2.80;1.20;;;5.20;56.10;;;;;;5152222;27;46535;-63
2022/01/28 14:14:19;;;;;;;5.10;1.47;;;5.10;56.00;;;;;;5155605;27;46341;-64
2022/01/28 14:16:47;;;;;;;3.53;1.53;;;5.10;55.70;;;;;;5154404;27;46323;-64
2022/01/28 14:19:13;;;;;;;3.87;1.40;;;5.10;56.30;;;;;;5156334;27;46545;-64
2022/01/28 14:21:40;;;;;;;8.00;1.40;;;5.00;56.90;;;;;;5156150;27;45845;-63
2022/01/28 14:24:07;;;;;;;3.03;1.17;;;5.10;58.30;;;;;;5155225;27;46384;-62
2022/01/28 14:26:44;;;;;;;2.90;1.33;;;4.90;56.60;;;;;;5148142;27;47089;-62
2022/01/28 14:29:23;;;;;;;2.90;1.40;;;4.80;56.80;;;;;;5148048;27;46371;-63
2022/01/28 14:31:50;;;;;;;8.60;2.73;;;4.70;56.70;;;;;;5150924;27;46430;-63
2022/01/28 14:34:16;;;;;;;3.50;1.70;;;4.70;58.80;;;;;;5157311;27;46730;-64